sensor_id;sensor_type;location;lat;lon;timestamp;pressure;altitude;pressure_sealevel;temperature;humidity
37238;BME280;23129;49.662;8.448;2022-07-22T00:02:05;101069.56;;;20.54;85.86
37238;BME280;23129;49.662;8.448;2022-07-22T00:04:33;101079.53;;;20.50;86.11
37238;BME280;23129;49.662;8.448;2022-07-22T00:07:02;101076.28;;;20.45;86.27
37238;BME280;23129;49.662;8.448;2022-07-22T00:09:30;101074.75;;;20.41;86.34
37238;BME280;23129;49.662;8.448;2022-07-22T00:11:59;101074.94;;;20.38;86.64
37238;BME280;23129;49.662;8.448;2022-07-22T00:14:29;101068.75;;;20.38;86.69
37238;BME280;23129;49.662;8.448;2022-07-22T00:16:57;101076.81;;;20.36;86.39
37238;BME280;23129;49.662;8.448;2022-07-22T00:19:26;101077.94;;;20.32;86.69
37238;BME280;23129;49.662;8.448;2022-07-22T00:21:54;101070.31;;;20.26;86.73
37238;BME280;23129;49.662;8.448;2022-07-22T00:24:22;101074.09;;;20.22;86.95
37238;BME280;23129;49.662;8.448;2022-07-22T00:26:51;101066.38;;;20.17;87.00
37238;BME280;23129;49.662;8.448;2022-07-22T00:29:19;101063.78;;;20.16;87.25
37238;BME280;23129;49.662;8.448;2022-07-22T00:31:49;101054.28;;;20.12;87.12
37238;BME280;23129;49.662;8.448;2022-07-22T00:34:17;101059.69;;;20.10;87.54
37238;BME280;23129;49.662;8.448;2022-07-22T00:36:46;101066.06;;;20.08;87.42
37238;BME280;23129;49.662;8.448;2022-07-22T00:39:14;101060.91;;;20.04;87.67
37238;BME280;23129;49.662;8.448;2022-07-22T00:41:43;101064.69;;;20.00;87.54
37238;BME280;23129;49.662;8.448;2022-07-22T00:44:12;101063.16;;;19.96;87.74
37238;BME280;23129;49.662;8.448;2022-07-22T00:46:41;101064.09;;;19.95;87.90
37238;BME280;23129;49.662;8.448;2022-07-22T00:49:11;101056.25;;;19.92;87.82
37238;BME280;23129;49.662;8.448;2022-07-22T00:51:39;101060.84;;;19.90;87.87
37238;BME280;23129;49.662;8.448;2022-07-22T00:54:09;101067.25;;;19.86;87.85
37238;BME280;23129;49.662;8.448;2022-07-22T00:56:37;101069.34;;;19.81;88.03
37238;BME280;23129;49.662;8.448;2022-07-22T00:59:10;101059.06;;;19.75;88.19
37238;BME280;23129;49.662;8.448;2022-07-22T01:01:39;101060.06;;;19.72;88.42
37238;BME280;23129;49.662;8.448;2022-07-22T01:04:07;101061.09;;;19.70;88.53
37238;BME280;23129;49.662;8.448;2022-07-22T01:06:37;101063.84;;;19.68;88.59
37238;BME280;23129;49.662;8.448;2022-07-22T01:09:06;101068.31;;;19.68;88.41
37238;BME280;23129;49.662;8.448;2022-07-22T01:11:34;101064.91;;;19.66;88.43
37238;BME280;23129;49.662;8.448;2022-07-22T01:14:03;101061.41;;;19.64;88.60
37238;BME280;23129;49.662;8.448;2022-07-22T01:16:31;101064.16;;;19.62;88.53
37238;BME280;23129;49.662;8.448;2022-07-22T01:19:00;101064.31;;;19.59;88.44
37238;BME280;23129;49.662;8.448;2022-07-22T01:21:30;101058.31;;;19.55;88.57
37238;BME280;23129;49.662;8.448;2022-07-22T01:23:59;101059.44;;;19.51;89.05
37238;BME280;23129;49.662;8.448;2022-07-22T01:26:28;101062.28;;;19.48;88.84
37238;BME280;23129;49.662;8.448;2022-07-22T01:28:57;101071.19;;;19.47;89.15
37238;BME280;23129;49.662;8.448;2022-07-22T01:31:27;101065.00;;;19.47;89.25
37238;BME280;23129;49.662;8.448;2022-07-22T01:33:57;101070.41;;;19.45;89.12
37238;BME280;23129;49.662;8.448;2022-07-22T01:36:26;101075.06;;;19.42;88.93
37238;BME280;23129;49.662;8.448;2022-07-22T01:38:56;101072.63;;;19.37;89.46
37238;BME280;23129;49.662;8.448;2022-07-22T01:41:26;101075.47;;;19.34;89.37
37238;BME280;23129;49.662;8.448;2022-07-22T01:43:54;101070.31;;;19.31;89.24
37238;BME280;23129;49.662;8.448;2022-07-22T01:46:22;101072.19;;;19.29;89.64
37238;BME280;23129;49.662;8.448;2022-07-22T01:48:52;101075.97;;;19.25;89.68
37238;BME280;23129;49.662;8.448;2022-07-22T01:51:21;101075.19;;;19.23;89.75
37238;BME280;23129;49.662;8.448;2022-07-22T01:53:50;101069.09;;;19.21;89.41
37238;BME280;23129;49.662;8.448;2022-07-22T01:56:20;101069.34;;;19.16;89.50
37238;BME280;23129;49.662;8.448;2022-07-22T01:58:50;101073.19;;;19.10;89.59
37238;BME280;23129;49.662;8.448;2022-07-22T02:01:23;101069.72;;;19.08;90.01
37238;BME280;23129;49.662;8.448;2022-07-22T02:03:53;101073.34;;;19.07;90.03
37238;BME280;23129;49.662;8.448;2022-07-22T02:06:22;101069.91;;;19.05;89.55
37238;BME280;23129;49.662;8.448;2022-07-22T02:08:52;101078.03;;;19.02;89.75
37238;BME280;23129;49.662;8.448;2022-07-22T02:11:43;101074.63;;;19.00;90.00
37238;BME280;23129;49.662;8.448;2022-07-22T02:14:15;101080.84;;;18.99;89.47
37238;BME280;23129;49.662;8.448;2022-07-22T02:16:43;101078.19;;;18.99;89.47
37238;BME280;23129;49.662;8.448;2022-07-22T02:19:12;101073.84;;;18.98;89.76
37238;BME280;23129;49.662;8.448;2022-07-22T02:21:40;101081.03;;;18.96;89.80
37238;BME280;23129;49.662;8.448;2022-07-22T02:24:09;101074.00;;;18.95;89.73
37238;BME280;23129;49.662;8.448;2022-07-22T02:26:37;101075.00;;;18.92;89.46
37238;BME280;23129;49.662;8.448;2022-07-22T02:29:07;101079.53;;;18.90;89.63
37238;BME280;23129;49.662;8.448;2022-07-22T02:31:36;101076.28;;;18.85;89.75
37238;BME280;23129;49.662;8.448;2022-07-22T02:34:07;101076.50;;;18.81;89.65
37238;BME280;23129;49.662;8.448;2022-07-22T02:36:36;101072.22;;;18.78;90.22
37238;BME280;23129;49.662;8.448;2022-07-22T02:39:05;101071.44;;;18.76;89.88
37238;BME280;23129;49.662;8.448;2022-07-22T02:41:33;101070.78;;;18.71;90.22
37238;BME280;23129;49.662;8.448;2022-07-22T02:44:02;101069.94;;;18.70;89.85
37238;BME280;23129;49.662;8.448;2022-07-22T02:46:32;101066.50;;;18.68;90.28
37238;BME280;23129;49.662;8.448;2022-07-22T02:49:10;101077.28;;;18.65;90.36
37238;BME280;23129;49.662;8.448;2022-07-22T02:51:39;101078.38;;;18.61;90.20
37238;BME280;23129;49.662;8.448;2022-07-22T02:54:07;101076.75;;;18.59;90.42
37238;BME280;23129;49.662;8.448;2022-07-22T02:56:36;101077.75;;;18.56;90.52
37238;BME280;23129;49.662;8.448;2022-07-22T02:59:04;101084.94;;;18.54;90.30
37238;BME280;23129;49.662;8.448;2022-07-22T03:01:34;101075.25;;;18.53;90.24
37238;BME280;23129;49.662;8.448;2022-07-22T03:04:04;101072.75;;;18.50;90.54
37238;BME280;23129;49.662;8.448;2022-07-22T03:06:35;101074.63;;;18.48;90.30
37238;BME280;23129;49.662;8.448;2022-07-22T03:09:10;101080.09;;;18.45;90.79
37238;BME280;23129;49.662;8.448;2022-07-22T03:11:42;101073.06;;;18.44;90.51
37238;BME280;23129;49.662;8.448;2022-07-22T03:14:12;101078.44;;;18.42;90.47
37238;BME280;23129;49.662;8.448;2022-07-22T03:16:41;101075.78;;;18.42;90.54
37238;BME280;23129;49.662;8.448;2022-07-22T03:19:10;101086.34;;;18.44;90.78
37238;BME280;23129;49.662;8.448;2022-07-22T03:21:38;101069.63;;;18.42;90.43
37238;BME280;23129;49.662;8.448;2022-07-22T03:24:07;101067.06;;;18.40;90.83
37238;BME280;23129;49.662;8.448;2022-07-22T03:26:35;101074.31;;;18.37;90.72
37238;BME280;23129;49.662;8.448;2022-07-22T03:29:06;101071.81;;;18.34;91.05
37238;BME280;23129;49.662;8.448;2022-07-22T03:31:35;101070.09;;;18.33;90.61
37238;BME280;23129;49.662;8.448;2022-07-22T03:34:06;101066.63;;;18.31;90.78
37238;BME280;23129;49.662;8.448;2022-07-22T03:36:38;101074.75;;;18.28;90.94
37238;BME280;23129;49.662;8.448;2022-07-22T03:39:08;101074.91;;;18.24;90.81
37238;BME280;23129;49.662;8.448;2022-07-22T03:41:37;101079.44;;;18.22;90.97
37238;BME280;23129;49.662;8.448;2022-07-22T03:44:05;101070.69;;;18.20;90.98
37238;BME280;23129;49.662;8.448;2022-07-22T03:46:34;101077.72;;;18.21;91.19
37238;BME280;23129;49.662;8.448;2022-07-22T03:49:05;101080.38;;;18.21;91.16
37238;BME280;23129;49.662;8.448;2022-07-22T03:51:34;101084.91;;;18.19;90.93
37238;BME280;23129;49.662;8.448;2022-07-22T03:54:02;101085.06;;;18.16;91.35
37238;BME280;23129;49.662;8.448;2022-07-22T03:56:31;101085.06;;;18.16;91.09
37238;BME280;23129;49.662;8.448;2022-07-22T03:58:59;101089.59;;;18.14;90.97
37238;BME280;23129;49.662;8.448;2022-07-22T04:01:29;101099.25;;;18.15;91.42
37238;BME280;23129;49.662;8.448;2022-07-22T04:03:58;101087.88;;;18.13;91.07
37238;BME280;23129;49.662;8.448;2022-07-22T04:06:39;101086.28;;;18.09;91.46
37238;BME280;23129;49.662;8.448;2022-07-22T04:09:18;101083.06;;;18.02;91.29
37238;BME280;23129;49.662;8.448;2022-07-22T04:11:46;101088.53;;;17.99;91.48
37238;BME280;23129;49.662;8.448;2022-07-22T04:14:18;101090.34;;;17.99;91.65
37238;BME280;23129;49.662;8.448;2022-07-22T04:16:47;101090.34;;;17.99;91.74
37238;BME280;23129;49.662;8.448;2022-07-22T04:19:15;101093.94;;;17.98;91.75
37238;BME280;23129;49.662;8.448;2022-07-22T04:21:51;101085.97;;;17.98;91.46
37238;BME280;23129;49.662;8.448;2022-07-22T04:24:22;101088.69;;;17.96;91.61
37238;BME280;23129;49.662;8.448;2022-07-22T04:26:50;101081.56;;;17.97;91.53
37238;BME280;23129;49.662;8.448;2022-07-22T04:29:18;101078.91;;;17.97;91.70
37238;BME280;23129;49.662;8.448;2022-07-22T04:31:47;101072.69;;;17.98;91.76
37238;BME280;23129;49.662;8.448;2022-07-22T04:34:18;101071.75;;;17.99;91.74
37238;BME280;23129;49.662;8.448;2022-07-22T04:36:48;101070.03;;;17.98;91.91
37238;BME280;23129;49.662;8.448;2022-07-22T04:39:18;101064.75;;;17.98;91.75
37238;BME280;23129;49.662;8.448;2022-07-22T04:41:54;101066.44;;;17.99;91.86
37238;BME280;23129;49.662;8.448;2022-07-22T04:44:23;101064.59;;;18.01;91.78
37238;BME280;23129;49.662;8.448;2022-07-22T04:46:51;101060.97;;;18.02;92.11
37238;BME280;23129;49.662;8.448;2022-07-22T04:49:20;101062.69;;;18.03;92.06
37238;BME280;23129;49.662;8.448;2022-07-22T04:51:48;101073.16;;;18.06;91.74
37238;BME280;23129;49.662;8.448;2022-07-22T04:54:27;101064.13;;;18.10;91.88
37238;BME280;23129;49.662;8.448;2022-07-22T04:56:57;101065.69;;;18.14;91.54
37238;BME280;23129;49.662;8.448;2022-07-22T04:59:26;101067.41;;;18.15;91.54
37238;BME280;23129;49.662;8.448;2022-07-22T05:01:54;101073.59;;;18.16;91.44
37238;BME280;23129;49.662;8.448;2022-07-22T05:04:23;101073.50;;;18.17;91.52
37238;BME280;23129;49.662;8.448;2022-07-22T05:06:52;101079.66;;;18.18;91.65
37238;BME280;23129;49.662;8.448;2022-07-22T05:09:20;101078.66;;;18.20;91.79
37238;BME280;23129;49.662;8.448;2022-07-22T05:11:50;101087.31;;;18.24;91.48
37238;BME280;23129;49.662;8.448;2022-07-22T05:14:21;101084.63;;;18.25;91.64
37238;BME280;23129;49.662;8.448;2022-07-22T05:16:50;101086.25;;;18.28;91.58
37238;BME280;23129;49.662;8.448;2022-07-22T05:19:19;101083.59;;;18.28;91.50
37238;BME280;23129;49.662;8.448;2022-07-22T05:21:47;101087.97;;;18.29;91.41
37238;BME280;23129;49.662;8.448;2022-07-22T05:24:16;101083.50;;;18.30;91.37
37238;BME280;23129;49.662;8.448;2022-07-22T05:26:45;101086.00;;;18.33;91.24
37238;BME280;23129;49.662;8.448;2022-07-22T05:29:15;101080.41;;;18.39;91.48
37238;BME280;23129;49.662;8.448;2022-07-22T05:31:44;101079.38;;;18.41;91.17
37238;BME280;23129;49.662;8.448;2022-07-22T05:34:12;101078.38;;;18.44;91.00
37238;BME280;23129;49.662;8.448;2022-07-22T05:36:44;101083.59;;;18.45;90.78
37238;BME280;23129;49.662;8.448;2022-07-22T05:39:14;101086.19;;;18.47;90.89
37238;BME280;23129;49.662;8.448;2022-07-22T05:41:42;101084.94;;;18.54;91.16
37238;BME280;23129;49.662;8.448;2022-07-22T05:44:11;101080.03;;;18.64;90.55
37238;BME280;23129;49.662;8.448;2022-07-22T05:46:41;101087.59;;;18.71;90.43
37238;BME280;23129;49.662;8.448;2022-07-22T05:49:09;101085.50;;;18.78;90.27
37238;BME280;23129;49.662;8.448;2022-07-22T05:51:50;101086.81;;;18.87;90.16
37238;BME280;23129;49.662;8.448;2022-07-22T05:54:19;101086.50;;;18.93;89.87
37238;BME280;23129;49.662;8.448;2022-07-22T05:56:47;101080.09;;;18.97;90.13
37238;BME280;23129;49.662;8.448;2022-07-22T05:59:16;101077.13;;;19.03;90.17
37238;BME280;23129;49.662;8.448;2022-07-22T06:01:46;101080.19;;;19.11;89.67
37238;BME280;23129;49.662;8.448;2022-07-22T06:04:35;101082.22;;;19.24;89.58
37238;BME280;23129;49.662;8.448;2022-07-22T06:07:03;101079.06;;;19.33;89.32
37238;BME280;23129;49.662;8.448;2022-07-22T06:09:33;101075.97;;;19.41;89.05
37238;BME280;23129;49.662;8.448;2022-07-22T06:12:02;101073.09;;;19.45;88.96
37238;BME280;23129;49.662;8.448;2022-07-22T06:14:31;101079.94;;;19.49;89.00
37238;BME280;23129;49.662;8.448;2022-07-22T06:17:01;101078.06;;;19.51;89.22
37238;BME280;23129;49.662;8.448;2022-07-22T06:19:29;101070.88;;;19.53;88.99
37238;BME280;23129;49.662;8.448;2022-07-22T06:21:59;101073.53;;;19.53;89.11
37238;BME280;23129;49.662;8.448;2022-07-22T06:24:27;101073.34;;;19.56;88.84
37238;BME280;23129;49.662;8.448;2022-07-22T06:26:56;101073.25;;;19.58;88.97
37238;BME280;23129;49.662;8.448;2022-07-22T06:29:24;101078.34;;;19.63;88.58
37238;BME280;23129;49.662;8.448;2022-07-22T06:31:53;101065.75;;;19.66;88.92
37238;BME280;23129;49.662;8.448;2022-07-22T06:34:24;101069.00;;;19.71;88.30
37238;BME280;23129;49.662;8.448;2022-07-22T06:37:00;101070.72;;;19.72;88.44
37238;BME280;23129;49.662;8.448;2022-07-22T06:39:28;101075.19;;;19.72;88.41
37238;BME280;23129;49.662;8.448;2022-07-22T06:42:15;101067.97;;;19.74;88.17
37238;BME280;23129;49.662;8.448;2022-07-22T06:45:01;101064.19;;;19.78;88.18
37238;BME280;23129;49.662;8.448;2022-07-22T06:47:39;101063.84;;;19.84;87.58
37238;BME280;23129;49.662;8.448;2022-07-22T06:50:13;101064.25;;;19.92;87.60
37238;BME280;23129;49.662;8.448;2022-07-22T06:52:43;101061.28;;;19.98;87.15
37238;BME280;23129;49.662;8.448;2022-07-22T06:55:11;101054.88;;;20.01;87.13
37238;BME280;23129;49.662;8.448;2022-07-22T06:57:47;101055.41;;;20.08;86.92
37238;BME280;23129;49.662;8.448;2022-07-22T07:00:16;101059.69;;;20.10;86.46
37238;BME280;23129;49.662;8.448;2022-07-22T07:03:08;101052.09;;;20.18;86.27
37238;BME280;23129;49.662;8.448;2022-07-22T07:06:01;101048.06;;;20.27;86.09
37238;BME280;23129;49.662;8.448;2022-07-22T07:08:47;101057.25;;;20.37;85.91
37238;BME280;23129;49.662;8.448;2022-07-22T07:11:16;101043.63;;;20.42;85.47
37238;BME280;23129;49.662;8.448;2022-07-22T07:13:44;101046.78;;;20.48;85.21
37238;BME280;23129;49.662;8.448;2022-07-22T07:16:13;101040.41;;;20.51;85.02
37238;BME280;23129;49.662;8.448;2022-07-22T07:18:41;101036.03;;;20.50;85.00
37238;BME280;23129;49.662;8.448;2022-07-22T07:21:12;101042.84;;;20.56;85.09
37238;BME280;23129;49.662;8.448;2022-07-22T07:23:41;101028.28;;;20.61;84.76
37238;BME280;23129;49.662;8.448;2022-07-22T07:26:09;101033.91;;;20.71;84.42
37238;BME280;23129;49.662;8.448;2022-07-22T07:28:38;101036.78;;;20.82;84.09
37238;BME280;23129;49.662;8.448;2022-07-22T07:31:15;101027.63;;;20.86;83.96
37238;BME280;23129;49.662;8.448;2022-07-22T07:33:47;101019.06;;;20.95;83.85
37238;BME280;23129;49.662;8.448;2022-07-22T07:36:18;101017.53;;;21.06;83.33
37238;BME280;23129;49.662;8.448;2022-07-22T07:38:49;101018.50;;;21.19;83.20
37238;BME280;23129;49.662;8.448;2022-07-22T07:41:18;101019.63;;;21.43;82.70
37238;BME280;23129;49.662;8.448;2022-07-22T07:43:49;101023.47;;;21.67;82.08
37238;BME280;23129;49.662;8.448;2022-07-22T07:46:19;101017.78;;;21.85;81.80
37238;BME280;23129;49.662;8.448;2022-07-22T07:48:47;101016.47;;;22.05;81.62
37238;BME280;23129;49.662;8.448;2022-07-22T07:51:19;101016.66;;;22.29;81.03
37238;BME280;23129;49.662;8.448;2022-07-22T07:53:47;101008.78;;;22.53;80.61
37238;BME280;23129;49.662;8.448;2022-07-22T07:56:16;101009.66;;;22.79;80.32
37238;BME280;23129;49.662;8.448;2022-07-22T07:58:46;101009.44;;;23.08;79.54
37238;BME280;23129;49.662;8.448;2022-07-22T08:01:34;101007.66;;;23.33;78.59
37238;BME280;23129;49.662;8.448;2022-07-22T08:04:23;100999.88;;;23.54;78.45
37238;BME280;23129;49.662;8.448;2022-07-22T08:07:15;100992.25;;;23.73;78.06
37238;BME280;23129;49.662;8.448;2022-07-22T08:09:45;100998.28;;;23.88;77.52
37238;BME280;23129;49.662;8.448;2022-07-22T08:12:26;100992.91;;;23.88;77.26
37238;BME280;23129;49.662;8.448;2022-07-22T08:15:15;100990.72;;;23.93;76.52
37238;BME280;23129;49.662;8.448;2022-07-22T08:17:50;100993.00;;;24.10;76.43
37238;BME280;23129;49.662;8.448;2022-07-22T08:20:21;100991.09;;;24.35;75.46
37238;BME280;23129;49.662;8.448;2022-07-22T08:22:52;100988.50;;;24.57;74.79
37238;BME280;23129;49.662;8.448;2022-07-22T08:25:22;100984.38;;;24.76;74.38
37238;BME280;23129;49.662;8.448;2022-07-22T08:27:50;100984.41;;;24.98;73.77
37238;BME280;23129;49.662;8.448;2022-07-22T08:30:19;100977.09;;;25.23;73.29
37238;BME280;23129;49.662;8.448;2022-07-22T08:32:50;100973.38;;;25.46;72.29
37238;BME280;23129;49.662;8.448;2022-07-22T08:35:19;100965.28;;;25.58;72.55
37238;BME280;23129;49.662;8.448;2022-07-22T08:37:48;100969.03;;;25.66;71.89
37238;BME280;23129;49.662;8.448;2022-07-22T08:40:18;100963.03;;;25.85;71.34
37238;BME280;23129;49.662;8.448;2022-07-22T08:42:49;100957.25;;;26.11;70.82
37238;BME280;23129;49.662;8.448;2022-07-22T08:45:19;100961.78;;;26.31;70.42
37238;BME280;23129;49.662;8.448;2022-07-22T08:47:50;100963.16;;;26.47;69.78
37238;BME280;23129;49.662;8.448;2022-07-22T08:50:38;100968.13;;;26.72;69.63
37238;BME280;23129;49.662;8.448;2022-07-22T08:53:22;100957.78;;;26.98;68.98
37238;BME280;23129;49.662;8.448;2022-07-22T08:55:54;100961.56;;;27.26;68.32
37238;BME280;23129;49.662;8.448;2022-07-22T08:58:23;100961.28;;;27.49;67.61
37238;BME280;23129;49.662;8.448;2022-07-22T09:01:07;100961.34;;;27.78;67.18
37238;BME280;23129;49.662;8.448;2022-07-22T09:03:48;100954.25;;;28.06;66.67
37238;BME280;23129;49.662;8.448;2022-07-22T09:06:19;100951.66;;;28.34;65.36
37238;BME280;23129;49.662;8.448;2022-07-22T09:08:56;100951.16;;;28.67;64.92
37238;BME280;23129;49.662;8.448;2022-07-22T09:12:04;100954.91;;;28.84;64.47
37238;BME280;23129;49.662;8.448;2022-07-22T09:15:03;100944.59;;;29.07;63.59
37238;BME280;23129;49.662;8.448;2022-07-22T09:17:41;100948.53;;;29.41;62.95
37238;BME280;23129;49.662;8.448;2022-07-22T09:20:39;100938.34;;;29.88;61.69
37238;BME280;23129;49.662;8.448;2022-07-22T09:23:26;100947.34;;;30.15;60.47
37238;BME280;23129;49.662;8.448;2022-07-22T09:26:06;100940.44;;;30.38;59.54
37238;BME280;23129;49.662;8.448;2022-07-22T09:29:14;100940.88;;;30.52;59.31
37238;BME280;23129;49.662;8.448;2022-07-22T09:32:06;100930.28;;;30.75;58.71
37238;BME280;23129;49.662;8.448;2022-07-22T09:35:02;100932.28;;;30.99;59.16
37238;BME280;23129;49.662;8.448;2022-07-22T09:37:48;100929.97;;;31.20;58.34
37238;BME280;23129;49.662;8.448;2022-07-22T09:40:19;100919.72;;;31.40;56.88
37238;BME280;23129;49.662;8.448;2022-07-22T09:42:51;100929.44;;;31.75;56.41
37238;BME280;23129;49.662;8.448;2022-07-22T09:45:24;100920.13;;;31.94;55.44
37238;BME280;23129;49.662;8.448;2022-07-22T09:47:55;100920.47;;;31.99;55.04
37238;BME280;23129;49.662;8.448;2022-07-22T09:50:43;100918.72;;;32.31;54.75
37238;BME280;23129;49.662;8.448;2022-07-22T09:53:41;100917.75;;;32.71;53.77
37238;BME280;23129;49.662;8.448;2022-07-22T09:56:13;100910.53;;;32.95;53.16
37238;BME280;23129;49.662;8.448;2022-07-22T09:58:43;100909.63;;;33.11;52.46
37238;BME280;23129;49.662;8.448;2022-07-22T10:01:39;100904.50;;;33.16;52.31
37238;BME280;23129;49.662;8.448;2022-07-22T10:04:08;100909.66;;;33.34;51.98
37238;BME280;23129;49.662;8.448;2022-07-22T10:06:40;100892.34;;;33.58;51.42
37238;BME280;23129;49.662;8.448;2022-07-22T10:09:15;100887.88;;;33.80;50.98
37238;BME280;23129;49.662;8.448;2022-07-22T10:11:47;100883.03;;;33.90;50.36
37238;BME280;23129;49.662;8.448;2022-07-22T10:14:18;100888.16;;;33.70;50.53
37238;BME280;23129;49.662;8.448;2022-07-22T10:16:54;100889.59;;;33.81;50.54
37238;BME280;23129;49.662;8.448;2022-07-22T10:19:23;100895.97;;;33.88;49.79
37238;BME280;23129;49.662;8.448;2022-07-22T10:21:51;100886.69;;;33.97;49.41
37238;BME280;23129;49.662;8.448;2022-07-22T10:24:20;100880.47;;;34.12;48.96
37238;BME280;23129;49.662;8.448;2022-07-22T10:27:02;100884.03;;;34.27;48.53
37238;BME280;23129;49.662;8.448;2022-07-22T10:29:32;100885.47;;;34.38;48.53
37238;BME280;23129;49.662;8.448;2022-07-22T10:32:26;100877.09;;;34.39;49.08
37238;BME280;23129;49.662;8.448;2022-07-22T10:35:23;100873.50;;;34.53;49.00
37238;BME280;23129;49.662;8.448;2022-07-22T10:38:03;100871.09;;;34.59;48.28
37238;BME280;23129;49.662;8.448;2022-07-22T10:40:47;100863.94;;;34.28;48.48
37238;BME280;23129;49.662;8.448;2022-07-22T10:43:17;100862.81;;;34.07;48.54
37238;BME280;23129;49.662;8.448;2022-07-22T10:45:50;100858.09;;;34.16;48.77
37238;BME280;23129;49.662;8.448;2022-07-22T10:48:24;100856.03;;;34.03;48.83
37238;BME280;23129;49.662;8.448;2022-07-22T10:51:07;100847.53;;;33.98;49.20
37238;BME280;23129;49.662;8.448;2022-07-22T10:53:45;100847.72;;;34.20;48.85
37238;BME280;23129;49.662;8.448;2022-07-22T10:56:24;100839.31;;;34.36;48.22
37238;BME280;23129;49.662;8.448;2022-07-22T10:58:57;100838.56;;;34.42;47.84
37238;BME280;23129;49.662;8.448;2022-07-22T11:01:29;100842.16;;;34.58;47.74
37238;BME280;23129;49.662;8.448;2022-07-22T11:04:12;100838.38;;;34.73;47.65
37238;BME280;23129;49.662;8.448;2022-07-22T11:06:46;100832.63;;;34.83;46.88
37238;BME280;23129;49.662;8.448;2022-07-22T11:09:17;100823.31;;;35.14;46.14
37238;BME280;23129;49.662;8.448;2022-07-22T11:11:48;100815.97;;;35.57;45.17
37238;BME280;23129;49.662;8.448;2022-07-22T11:14:22;100820.03;;;35.47;45.58
37238;BME280;23129;49.662;8.448;2022-07-22T11:16:56;100812.53;;;35.06;45.94
37238;BME280;23129;49.662;8.448;2022-07-22T11:19:28;100811.88;;;35.25;45.99
37238;BME280;23129;49.662;8.448;2022-07-22T11:21:59;100804.19;;;35.57;45.33
37238;BME280;23129;49.662;8.448;2022-07-22T11:24:29;100802.72;;;35.82;44.25
37238;BME280;23129;49.662;8.448;2022-07-22T11:26:59;100797.31;;;35.96;44.28
37238;BME280;23129;49.662;8.448;2022-07-22T11:29:33;100789.13;;;35.96;44.17
37238;BME280;23129;49.662;8.448;2022-07-22T11:32:06;100799.53;;;36.07;43.91
37238;BME280;23129;49.662;8.448;2022-07-22T11:34:39;100792.97;;;36.43;43.78
37238;BME280;23129;49.662;8.448;2022-07-22T11:37:10;100785.53;;;36.78;42.78
37238;BME280;23129;49.662;8.448;2022-07-22T11:39:38;100784.31;;;36.94;42.43
37238;BME280;23129;49.662;8.448;2022-07-22T11:42:08;100771.28;;;36.96;42.51
37238;BME280;23129;49.662;8.448;2022-07-22T11:44:37;100775.91;;;36.95;42.11
37238;BME280;23129;49.662;8.448;2022-07-22T11:47:08;100766.69;;;37.03;41.81
37238;BME280;23129;49.662;8.448;2022-07-22T11:49:38;100768.19;;;37.26;41.47
37238;BME280;23129;49.662;8.448;2022-07-22T11:52:09;100760.78;;;37.39;41.13
37238;BME280;23129;49.662;8.448;2022-07-22T11:54:40;100757.44;;;37.37;40.92
37238;BME280;23129;49.662;8.448;2022-07-22T11:57:11;100767.97;;;37.54;40.54
37238;BME280;23129;49.662;8.448;2022-07-22T11:59:39;100755.31;;;37.59;40.89
37238;BME280;23129;49.662;8.448;2022-07-22T12:02:09;100758.47;;;37.63;40.34
37238;BME280;23129;49.662;8.448;2022-07-22T12:04:42;100750.66;;;37.80;40.35
37238;BME280;23129;49.662;8.448;2022-07-22T12:07:14;100751.91;;;37.84;39.74
37238;BME280;23129;49.662;8.448;2022-07-22T12:09:44;100761.16;;;37.96;39.65
37238;BME280;23129;49.662;8.448;2022-07-22T12:12:13;100751.94;;;37.71;39.95
37238;BME280;23129;49.662;8.448;2022-07-22T12:14:46;100744.78;;;37.63;40.34
37238;BME280;23129;49.662;8.448;2022-07-22T12:17:15;100744.94;;;37.81;40.80
37238;BME280;23129;49.662;8.448;2022-07-22T12:19:45;100744.13;;;37.94;39.48
37238;BME280;23129;49.662;8.448;2022-07-22T12:22:21;100743.06;;;37.75;39.65
37238;BME280;23129;49.662;8.448;2022-07-22T12:24:59;100738.47;;;37.62;40.12
37238;BME280;23129;49.662;8.448;2022-07-22T12:27:29;100733.16;;;37.81;39.22
37238;BME280;23129;49.662;8.448;2022-07-22T12:29:58;100733.72;;;38.09;38.58
37238;BME280;23129;49.662;8.448;2022-07-22T12:32:28;100729.97;;;38.04;38.39
37238;BME280;23129;49.662;8.448;2022-07-22T12:35:01;100729.31;;;38.02;38.43
37238;BME280;23129;49.662;8.448;2022-07-22T12:37:32;100709.06;;;38.09;37.99
37238;BME280;23129;49.662;8.448;2022-07-22T12:40:04;100721.25;;;38.13;37.35
37238;BME280;23129;49.662;8.448;2022-07-22T12:42:35;100712.00;;;38.08;37.39
37238;BME280;23129;49.662;8.448;2022-07-22T12:45:07;100712.16;;;38.20;36.85
37238;BME280;23129;49.662;8.448;2022-07-22T12:47:48;100713.34;;;38.37;37.24
37238;BME280;23129;49.662;8.448;2022-07-22T12:50:21;100710.03;;;38.28;36.38
37238;BME280;23129;49.662;8.448;2022-07-22T12:52:53;100708.25;;;38.09;36.73
37238;BME280;23129;49.662;8.448;2022-07-22T12:55:45;100712.28;;;37.86;36.90
37238;BME280;23129;49.662;8.448;2022-07-22T12:58:15;100708.06;;;37.84;36.24
37238;BME280;23129;49.662;8.448;2022-07-22T13:00:47;100699.81;;;38.04;36.37
37238;BME280;23129;49.662;8.448;2022-07-22T13:03:17;100698.22;;;38.28;35.55
37238;BME280;23129;49.662;8.448;2022-07-22T13:05:49;100689.03;;;38.16;35.72
37238;BME280;23129;49.662;8.448;2022-07-22T13:08:18;100690.81;;;37.97;35.84
37238;BME280;23129;49.662;8.448;2022-07-22T13:10:48;100687.78;;;38.11;35.31
37238;BME280;23129;49.662;8.448;2022-07-22T13:13:16;100676.31;;;38.28;35.02
37238;BME280;23129;49.662;8.448;2022-07-22T13:15:45;100682.13;;;38.38;34.51
37238;BME280;23129;49.662;8.448;2022-07-22T13:18:14;100683.38;;;38.74;34.07